KBNL

Barnwell Regional Airport

Barnwell, South Carolina, USA
METAR KBNL 162255Z AUTO 00000KT 10SM CLR 09/02 A3021 RMK AO2
Observed Flight Rules
Jan-16 @ 22:55 UTC (7 minutes ago) Visual Flight Rules
Visibility Clouds
10 miles
  • Clear skies
Temperatures Readings
Current 9°C / 48°F
Dewpoint 2°C / 36°F
Humidity 62%
Altimeter 30.21" Hg
Pressure 1023.02 hPa
Elevation 75
METAR KBNL 162255Z AUTO 00000KT 10SM CLR 09/02 A3021 RMK AO2
Observed Flight Rules
Jan-16 @ 22:55 UTC
(7 minutes ago)
VFR
Clouds
  • Clear skies
Temperature Dewpoint
9°C / 48°F 2°C / 36°F
Humidity Altimeter Pressure
62% 30.21" Hg 1023.02 hPa